Cal Poly University, California
Current Conditions -  °F | °C
As of 8:56 PM on Thursday 30 Oct 2014 (Local Time) from KSBP Reporting Station
Clear Clear  
Wind Chill: 60°   Ceiling: Unl
Heat Index: 60°   Visibility: 10mi
Dew Point: 55°   Wind: 5mph
Humidity: 83%   Direction: 150°SSE
Pressure: 29.94"   Gusts: NA
Location:  35.2979°N, 120.659°W
Report Text: KSBP 310356Z AUTO 15004KT 10SM CLR 16/13 A2994 RMK AO2 SLP137 T01560128
Loading
Personal Weather Stations






























Interactive Weather Map
Tropical Storm Tracking
New forecast layout! Learn more

10-Day Weather Forecast

Advertisements
Track Severe Weather on mobile